Rain From: 21-07-2018 02:00 Until: 16:00 warning for: Rain Level: Yellow info button
suomi:
Sadevaroitus: Aamuyöstä alkaen voi sataa rankasti, yli 20 mm tunnissa.

svenska:
Nederbördsvarning: Från och med efternatten kan det förekomma synnerligen riklig nederbörd, mer än 20 mm i timmen.

english:
Heavy rain warning: From the early morning on heavy rain of more than 20 mm per hour can be expected. 

Forest fire From: 20-07-2018 23:00 Until: 21-07-2018 11:00 warning for: Forest fire Level: Yellow info button
suomi:
Metsäpalovaroitus on voimassa.

svenska:
Varning för skogsbrand gäller.

english:
A forest fire warning is in force. 


Thunder radar more information blitzortung!


Löydät sääaseman tiedot myös:

European Weather Network

Finland Weather Exchange

Weather Underground

AWEKAS



Weather Underground säähistoriasivu

Päivittäin yhteenveto Maaliskuu 19, 2017 Yksiköt:  Molemmat    Englantilaiset   Metriset
« Edellinen Päivä
Seuraava Päivä »
Päivittäin Viikoittain Kuukausittain Vuosittain Mukautettu
  Korkea: Matala: Keskiarvo:
Lämpötila: TemperatureC °F /  -17.8 °C -5.4 °F /  -20.8 °C -1.3 °F /  -18.5 °C
Kastepiste: DewpointC °F /  -17.8 °C -8.0 °F /  -22.2 °C -5.5 °F /  -20.8 °C
Kosteus: Humidity % 44 % 74 %
Tuulen nopeus: WindSpeedKMH mph /  0 km/h - 0.1 mph /  0.2 km/h
Tuulenpuuska: WindSpeedGustKMH mph /  0 km/h - -
Tuuli:- - WNW
Ilmanpaine: PressurehPa in /  0 hPa 994.8 in /  33683.9 hPa -
Sade: 0.0 in /  0 mm    
Historical Graphs
 
 
Taulukkotiedot Maaliskuu 19, 2017
Aika Lämpötila Kastepiste Ilmanpaine Tuuli Tuulen nopeus Tuulenpuuska Kosteus Sademäärä (tunneittain)
TemperatureC °F /  -17.8 °C DewpointC °F /  -17.8 °C PressurehPa in /  0 hPa Calm     Humidity % HourlyPrecipMM in /  0 mm
00:15 -1.7 °F /  -18.7 °C -5.0 °F /  -20.6 °C 994.8 in /  33683.9 hPa WNW 1.6 mph /  2.6 km/h 6.4 mph /  10.3 km/h 78 % 0.0 in /  0 mm
00:30 -1.8 °F /  -18.8 °C -5.1 °F /  -20.6 °C 995.1 in /  33694.1 hPa WNW 1.6 mph /  2.6 km/h 6.4 mph /  10.3 km/h 78 % 0.0 in /  0 mm
00:45 -2.0 °F /  -18.9 °C -5.0 °F /  -20.6 °C 995.5 in /  33707.6 hPa Calm     80 % 0.0 in /  0 mm
01:00 -2.2 °F /  -19 °C -5.0 °F /  -20.6 °C 995.5 in /  33707.6 hPa Calm     81 % 0.0 in /  0 mm
01:15 -2.3 °F /  -19.1 °C -5.2 °F /  -20.7 °C 995.5 in /  33707.6 hPa Calm   3.2 mph /  5.1 km/h 81 % 0.0 in /  0 mm
01:30 -2.5 °F /  -19.2 °C -5.3 °F /  -20.7 °C 995.8 in /  33717.8 hPa Calm     81 % 0.0 in /  0 mm
02:00 -2.4 °F /  -19.1 °C -5.1 °F /  -20.6 °C 996.2 in /  33731.3 hPa Calm   3.2 mph /  5.1 km/h 82 % 0.0 in /  0 mm
02:15 -2.6 °F /  -19.2 °C -5.2 °F /  -20.7 °C 996.2 in /  33731.3 hPa Calm     82 % 0.0 in /  0 mm
02:30 -2.6 °F /  -19.2 °C -5.1 °F /  -20.6 °C 996.5 in /  33741.5 hPa Calm   1.6 mph /  2.6 km/h 83 % 0.0 in /  0 mm
02:45 -2.6 °F /  -19.2 °C -4.9 °F /  -20.5 °C 996.5 in /  33741.5 hPa Calm     84 % 0.0 in /  0 mm
03:00 -2.6 °F /  -19.2 °C -4.7 °F /  -20.4 °C 996.8 in /  33751.6 hPa Calm     85 % 0.0 in /  0 mm
03:15 -2.7 °F /  -19.3 °C -4.8 °F /  -20.4 °C 997.2 in /  33765.2 hPa Calm   1.6 mph /  2.6 km/h 85 % 0.0 in /  0 mm
03:30 -2.8 °F /  -19.3 °C -4.6 °F /  -20.3 °C 997.2 in /  33765.2 hPa Calm   1.6 mph /  2.6 km/h 87 % 0.0 in /  0 mm
03:45 -2.9 °F /  -19.4 °C -4.7 °F /  -20.4 °C 997.5 in /  33775.4 hPa Calm     88 % 0.0 in /  0 mm
04:00 -3.2 °F /  -19.6 °C -4.9 °F /  -20.5 °C 997.9 in /  33788.9 hPa Calm     88 % 0.0 in /  0 mm
04:15 -3.2 °F /  -19.6 °C -4.8 °F /  -20.4 °C 997.9 in /  33788.9 hPa Calm     89 % 0.0 in /  0 mm
04:30 -3.4 °F /  -19.7 °C -5.0 °F /  -20.6 °C 998.2 in /  33799.1 hPa Calm     89 % 0.0 in /  0 mm
04:45 -3.7 °F /  -19.8 °C -5.1 °F /  -20.6 °C 998.5 in /  33809.2 hPa Calm     90 % 0.0 in /  0 mm
05:00 -3.8 °F /  -19.9 °C -5.1 °F /  -20.6 °C 998.5 in /  33809.2 hPa Calm     91 % 0.0 in /  0 mm
05:15 -3.9 °F /  -19.9 °C -5.1 °F /  -20.6 °C 998.9 in /  33822.8 hPa Calm     92 % 0.0 in /  0 mm
05:30 -3.9 °F /  -19.9 °C -5.2 °F /  -20.7 °C 999.2 in /  33832.9 hPa Calm   1.6 mph /  2.6 km/h 91 % 0.0 in /  0 mm
05:45 -4.1 °F /  -20.1 °C -5.4 °F /  -20.8 °C 999.5 in /  33843.1 hPa Calm     91 % 0.0 in /  0 mm
06:00 -4.3 °F /  -20.2 °C -5.6 °F /  -20.9 °C 999.5 in /  33843.1 hPa Calm     91 % 0.0 in /  0 mm
06:15 -4.7 °F /  -20.4 °C -5.9 °F /  -21.1 °C 999.9 in /  33856.6 hPa Calm     91 % 0.0 in /  0 mm
06:30 -4.9 °F /  -20.5 °C -6.0 °F /  -21.1 °C 999.9 in /  33856.6 hPa Calm     92 % 0.0 in /  0 mm
06:45 -5.2 °F /  -20.7 °C -6.3 °F /  -21.3 °C 1000.2 in /  33866.8 hPa Calm     92 % 0.0 in /  0 mm
07:00 -5.3 °F /  -20.7 °C -6.4 °F /  -21.3 °C 1000.2 in /  33866.8 hPa Calm     92 % 0.0 in /  0 mm
07:15 -5.4 °F /  -20.8 °C -6.4 °F /  -21.3 °C 1000.6 in /  33880.3 hPa Calm     93 % 0.0 in /  0 mm
07:30 -5.4 °F /  -20.8 °C -6.4 °F /  -21.3 °C 1000.9 in /  33890.5 hPa Calm     93 % 0.0 in /  0 mm
07:45 -5.2 °F /  -20.7 °C -6.0 °F /  -21.1 °C 1000.9 in /  33890.5 hPa Calm     94 % 0.0 in /  0 mm
08:00 -4.9 °F /  -20.5 °C -5.7 °F /  -20.9 °C 1001.2 in /  33900.6 hPa Calm     94 % 0.0 in /  0 mm
08:15 -4.5 °F /  -20.3 °C -5.3 °F /  -20.7 °C 1001.2 in /  33900.6 hPa Calm     94 % 0.0 in /  0 mm
08:30 -4.2 °F /  -20.1 °C -5.0 °F /  -20.6 °C 1001.6 in /  33914.2 hPa Calm     94 % 0.0 in /  0 mm
08:45 -3.9 °F /  -19.9 °C -4.8 °F /  -20.4 °C 1001.6 in /  33914.2 hPa Calm     94 % 0.0 in /  0 mm
09:00 -3.7 °F /  -19.8 °C -4.7 °F /  -20.4 °C 1001.6 in /  33914.2 hPa Calm     93 % 0.0 in /  0 mm
09:15 -3.4 °F /  -19.7 °C -4.4 °F /  -20.2 °C 1001.6 in /  33914.2 hPa Calm     93 % 0.0 in /  0 mm
09:30 -3.1 °F /  -19.5 °C -4.2 °F /  -20.1 °C 1001.9 in /  33924.3 hPa Calm   1.6 mph /  2.6 km/h 92 % 0.0 in /  0 mm
09:45 -2.7 °F /  -19.3 °C -4.1 °F /  -20.1 °C 1001.9 in /  33924.3 hPa Calm     90 % 0.0 in /  0 mm
10:00 -2.1 °F /  -18.9 °C -3.9 °F /  -19.9 °C 1002.3 in /  33937.9 hPa Calm   1.6 mph /  2.6 km/h 87 % 0.0 in /  0 mm
10:15 -1.2 °F /  -18.4 °C -3.7 °F /  -19.8 °C 1002.3 in /  33937.9 hPa Calm   1.6 mph /  2.6 km/h 83 % 0.0 in /  0 mm
10:30 -0.7 °F /  -18.2 °C -3.7 °F /  -19.8 °C 1002.3 in /  33937.9 hPa Calm     80 % 0.0 in /  0 mm
10:45 -0.3 °F /  -17.9 °C -4.0 °F /  -20 °C 1002.3 in /  33937.9 hPa Calm   1.6 mph /  2.6 km/h 76 % 0.0 in /  0 mm
11:00 0.1 °F /  -17.7 °C -4.0 °F /  -20 °C 1002.3 in /  33937.9 hPa Calm   1.6 mph /  2.6 km/h 74 % 0.0 in /  0 mm
11:15 0.4 °F /  -17.6 °C -4.4 °F /  -20.2 °C 1002.3 in /  33937.9 hPa Calm   1.6 mph /  2.6 km/h 70 % 0.0 in /  0 mm
11:30 0.9 °F /  -17.3 °C -4.2 °F /  -20.1 °C 1002.3 in /  33937.9 hPa Calm   1.6 mph /  2.6 km/h 69 % 0.0 in /  0 mm
11:45 1.1 °F /  -17.2 °C -4.6 °F /  -20.3 °C 1002.3 in /  33937.9 hPa Calm   1.6 mph /  2.6 km/h 66 % 0.0 in /  0 mm
12:00 1.4 °F /  -17 °C -4.0 °F /  -20 °C 1002.3 in /  33937.9 hPa Calm   1.6 mph /  2.6 km/h 67 % 0.0 in /  0 mm
12:15 1.8 °F /  -16.8 °C -4.1 °F /  -20.1 °C 1002.3 in /  33937.9 hPa Calm   3.2 mph /  5.1 km/h 65 % 0.0 in /  0 mm
12:30 1.8 °F /  -16.8 °C -4.7 °F /  -20.4 °C 1002.3 in /  33937.9 hPa Calm   3.2 mph /  5.1 km/h 62 % 0.0 in /  0 mm
12:45 1.9 °F /  -16.7 °C -5.0 °F /  -20.6 °C 1002.3 in /  33937.9 hPa Calm   1.6 mph /  2.6 km/h 60 % 0.0 in /  0 mm
13:30 2.8 °F /  -16.2 °C -5.1 °F /  -20.6 °C 1002.3 in /  33937.9 hPa Calm   3.2 mph /  5.1 km/h 56 % 0.0 in /  0 mm
13:45 2.9 °F /  -16.2 °C -5.3 °F /  -20.7 °C 1002.3 in /  33937.9 hPa Calm   1.6 mph /  2.6 km/h 55 % 0.0 in /  0 mm
14:00 2.7 °F /  -16.3 °C -6.2 °F /  -21.2 °C 1002.3 in /  33937.9 hPa Calm   3.2 mph /  5.1 km/h 52 % 0.0 in /  0 mm
14:15 3.0 °F /  -16.1 °C -6.7 °F /  -21.5 °C 1002.3 in /  33937.9 hPa Calm   4.8 mph /  7.7 km/h 49 % 0.0 in /  0 mm
14:30 3.2 °F /  -16 °C -5.0 °F /  -20.6 °C 1002.3 in /  33937.9 hPa Calm   3.2 mph /  5.1 km/h 55 % 0.0 in /  0 mm
14:45 3.8 °F /  -15.7 °C -6.2 °F /  -21.2 °C 1002.3 in /  33937.9 hPa Calm   1.6 mph /  2.6 km/h 48 % 0.0 in /  0 mm
15:00 3.4 °F /  -15.9 °C -6.3 °F /  -21.3 °C 1002.3 in /  33937.9 hPa Calm   3.2 mph /  5.1 km/h 49 % 0.0 in /  0 mm
15:15 3.9 °F /  -15.6 °C -5.8 °F /  -21 °C 1002.3 in /  33937.9 hPa Calm   1.6 mph /  2.6 km/h 49 % 0.0 in /  0 mm
15:30 4.0 °F /  -15.6 °C -6.3 °F /  -21.3 °C 1001.9 in /  33924.3 hPa Calm     47 % 0.0 in /  0 mm
15:45 3.6 °F /  -15.8 °C -5.9 °F /  -21.1 °C 1002.3 in /  33937.9 hPa Calm   1.6 mph /  2.6 km/h 50 % 0.0 in /  0 mm
16:00 4.2 °F /  -15.4 °C -6.1 °F /  -21.2 °C 1001.9 in /  33924.3 hPa Calm     47 % 0.0 in /  0 mm
16:15 4.4 °F /  -15.3 °C -6.8 °F /  -21.6 °C 1001.9 in /  33924.3 hPa Calm   1.6 mph /  2.6 km/h 44 % 0.0 in /  0 mm
16:30 3.8 °F /  -15.7 °C -6.8 °F /  -21.6 °C 1001.9 in /  33924.3 hPa Calm     46 % 0.0 in /  0 mm
16:45 3.1 °F /  -16.1 °C -6.9 °F /  -21.6 °C 1001.9 in /  33924.3 hPa Calm   1.6 mph /  2.6 km/h 48 % 0.0 in /  0 mm
17:00 2.7 °F /  -16.3 °C -7.5 °F /  -21.9 °C 1002.3 in /  33937.9 hPa Calm     47 % 0.0 in /  0 mm
17:15 2.5 °F /  -16.4 °C -8.0 °F /  -22.2 °C 1001.9 in /  33924.3 hPa Calm     46 % 0.0 in /  0 mm
17:30 2.2 °F /  -16.6 °C -8.0 °F /  -22.2 °C 1001.9 in /  33924.3 hPa Calm     47 % 0.0 in /  0 mm
17:45 1.8 °F /  -16.8 °C -7.2 °F /  -21.8 °C 1001.9 in /  33924.3 hPa Calm     51 % 0.0 in /  0 mm
18:00 1.4 °F /  -17 °C -7.9 °F /  -22.2 °C 1001.9 in /  33924.3 hPa Calm     50 % 0.0 in /  0 mm
18:15 1.0 °F /  -17.2 °C -6.6 °F /  -21.4 °C 1001.9 in /  33924.3 hPa Calm     57 % 0.0 in /  0 mm
18:30 0.3 °F /  -17.6 °C -6.6 °F /  -21.4 °C 1001.9 in /  33924.3 hPa Calm     60 % 0.0 in /  0 mm
18:45 -0.6 °F /  -18.1 °C -5.4 °F /  -20.8 °C 1001.9 in /  33924.3 hPa Calm     70 % 0.0 in /  0 mm
19:00 -1.3 °F /  -18.5 °C -6.3 °F /  -21.3 °C 1001.9 in /  33924.3 hPa Calm     69 % 0.0 in /  0 mm
19:15 -1.9 °F /  -18.8 °C -6.8 °F /  -21.6 °C 1001.9 in /  33924.3 hPa Calm     69 % 0.0 in /  0 mm
19:30 -2.2 °F /  -19 °C -6.4 °F /  -21.3 °C 1001.9 in /  33924.3 hPa Calm     73 % 0.0 in /  0 mm
20:00 -2.7 °F /  -19.3 °C -7.0 °F /  -21.7 °C 1001.9 in /  33924.3 hPa Calm     72 % 0.0 in /  0 mm
20:15 -2.8 °F /  -19.3 °C -6.8 °F /  -21.6 °C 1002.3 in /  33937.9 hPa Calm     74 % 0.0 in /  0 mm
20:30 -3.0 °F /  -19.4 °C -7.0 °F /  -21.7 °C 1001.9 in /  33924.3 hPa Calm     74 % 0.0 in /  0 mm
20:45 -3.2 °F /  -19.6 °C -6.9 °F /  -21.6 °C 1001.9 in /  33924.3 hPa Calm     76 % 0.0 in /  0 mm
21:00 -3.3 °F /  -19.6 °C -7.0 °F /  -21.7 °C 1001.9 in /  33924.3 hPa Calm     76 % 0.0 in /  0 mm
21:15 -3.4 °F /  -19.7 °C -7.1 °F /  -21.7 °C 1001.9 in /  33924.3 hPa Calm     76 % 0.0 in /  0 mm
21:30 -3.4 °F /  -19.7 °C -7.0 °F /  -21.7 °C 1001.9 in /  33924.3 hPa NW 1.6 mph /  2.6 km/h 4.8 mph /  7.7 km/h 76 % 0.0 in /  0 mm
21:45 -3.2 °F /  -19.6 °C -6.5 °F /  -21.4 °C 1001.9 in /  33924.3 hPa Calm     78 % 0.0 in /  0 mm
22:00 -2.9 °F /  -19.4 °C -5.9 °F /  -21.1 °C 1001.9 in /  33924.3 hPa Calm     80 % 0.0 in /  0 mm
22:15 -2.8 °F /  -19.3 °C -5.8 °F /  -21 °C 1001.9 in /  33924.3 hPa Calm   3.2 mph /  5.1 km/h 80 % 0.0 in /  0 mm
22:30 -2.8 °F /  -19.3 °C -5.8 °F /  -21 °C 1001.9 in /  33924.3 hPa Calm     80 % 0.0 in /  0 mm
22:45 -2.8 °F /  -19.3 °C -5.4 °F /  -20.8 °C 1001.9 in /  33924.3 hPa WNW 1.6 mph /  2.6 km/h 6.4 mph /  10.3 km/h 82 % 0.0 in /  0 mm
23:00 -2.8 °F /  -19.3 °C -5.4 °F /  -20.8 °C 1001.9 in /  33924.3 hPa Calm     82 % 0.0 in /  0 mm
23:15 -2.8 °F /  -19.3 °C -5.5 °F /  -20.8 °C 1001.6 in /  33914.2 hPa Calm   1.6 mph /  2.6 km/h 82 % 0.0 in /  0 mm
23:30 -2.9 °F /  -19.4 °C -5.4 °F /  -20.8 °C 1001.9 in /  33924.3 hPa Calm     83 % 0.0 in /  0 mm
23:45 -3.0 °F /  -19.4 °C -5.5 °F /  -20.8 °C 1001.6 in /  33914.2 hPa Calm     83 % 0.0 in /  0 mm
Esan sääasema
Terveisin Weather Underground - 2.75 mb

Alkuperäinen skripti  Jim McMurry - jmcmurry@mwt.net Sovitettu myös templatelle  Wim van der Kuil - Leuven-Template.eu

Laitteet joita käytämme:

Sääasema
Davis VP2

Sääasemaohjelma
Cumulus

Sääaseman tietokone
Asus EeePC

Palveluntarjoaja
Suncomet

Davis VP2

Cumulus

Asus EeePC

Suncomet